• Join FlightAware (Why Join?)
  • Login
  • US Flag 
06:01PM EDT


 

Airport Tracker/Info


-or-


 

Live Flight TrackerFlight Track Log ✈ AWE4079 ✈ 10-Aug-2014 ✈ KPHL - KSDF

Flight Track Log - Related Links

Times and Time Zones

All times are in EDT time to prevent confusion due to time zone crossing. See the AWE4079 flight status page for this flight to view local times or setup timezone preferences in your user account.

Time Position Orientation Groundspeed Altitude Reporting Facility
EDT Latitude Longitude Course Direction KTS MPH feet Rate Location/Type
01:09PM 39.8667 -75.2833 253° West 162 186 500  Level Philadelphia TRACON
01:11PM 39.8319 -75.4286 253° West 216 249 4,100 1,800 Climbing New York Center
01:12PM 39.8194 -75.5331 261° West 252 290 6,500 2,160 Climbing New York Center
01:13PM 39.8325 -75.6206 281° West 272 313 8,500 1,980 Climbing New York Center
01:14PM 39.8633 -75.7308 290° West 282 325 10,400 1,860 Climbing New York Center
01:15PM 39.8950 -75.8197 295° West 298 343 12,200 1,980 Climbing New York Center
01:16PM 39.9319 -75.9281 294° West 303 349 14,500 1,920 Climbing New York Center
01:17PM 39.9311 -76.0417 269° West 308 354 16,100 1,560 Climbing New York Center
01:18PM 39.9303 -76.1500 269° West 327 376 17,700 1,440 Climbing New York Center
01:19PM 39.9303 -76.2853 270° West 333 383 19,100 1,320 Climbing New York Center
01:20PM 39.9308 -76.4100 270° West 340 391 20,400 1,200 Climbing New York Center
01:22PM 39.9253 -76.7008 269° West 352 405 23,100 1,080 Climbing Washington Center
01:23PM 39.8806 -76.8056 241° Southwest 362 417 24,200 1,020 Climbing Washington Center
01:24PM 39.8292 -76.9181 239° Southwest 362 417 25,200 900 Climbing Washington Center
01:25PM 39.7739 -77.0331 238° Southwest 368 423 26,000 720 Climbing Washington Center
01:26PM 39.7203 -77.1481 239° Southwest 379 436 26,700 660 Climbing Washington Center
01:27PM 39.6644 -77.2656 238° Southwest 384 442 27,400 600 Climbing Washington Center
01:28PM 39.6067 -77.3881 239° Southwest 384 442 28,000 240 Climbing Washington Center
01:29PM 39.5464 -77.5131 238° Southwest 394 453 28,000  Level Washington Center
01:30PM 39.4900 -77.6353 239° Southwest 401 461 28,000  Level Washington Center
01:31PM 39.4339 -77.7519 238° Southwest 396 456 28,000  Level Washington Center
01:32PM 39.3775 -77.8736 239° Southwest 396 456 28,000  Level Washington Center
01:33PM 39.3269 -78.0008 243° Southwest 396 456 28,000  Level Washington Center
01:34PM 39.2764 -78.1281 243° Southwest 396 456 28,000  Level Washington Center
01:35PM 39.2258 -78.2522 242° Southwest 396 456 28,000  Level Washington Center
01:36PM 39.1750 -78.3789 243° Southwest 396 456 28,000  Level Washington Center
01:37PM 39.1303 -78.5056 246° West 396 456 28,000  Level Washington Center
01:38PM 39.1044 -78.6275 255° West 396 456 28,000  Level Washington Center
01:39PM 39.0717 -78.7706 254° West 391 450 28,000  Level Washington Center
01:40PM 39.0408 -78.9056 254° West 391 450 28,000  Level Washington Center
01:41PM 39.0119 -79.0378 254° West 391 450 28,000  Level Washington Center
01:42PM 38.9811 -79.1725 254° West 391 450 28,000  Level Washington Center
01:43PM 38.9519 -79.3047 254° West 396 456 28,000  Level Washington Center
01:44PM 38.9208 -79.4364 253° West 396 456 28,000  Level Washington Center
01:45PM 38.8894 -79.5683 253° West 396 456 28,000  Level Washington Center
01:46PM 38.8597 -79.7025 254° West 396 456 28,000  Level Washington Center
01:47PM 38.8303 -79.8342 254° West 396 456 28,000  Level Washington Center
01:48PM 38.7983 -79.9683 253° West 396 456 28,000  Level Washington Center
01:49PM 38.7686 -80.0942 253° West 390 449 28,000  Level Washington Center
01:50PM 38.7306 -80.2319 251° West 381 438 28,000  Level Indianapolis Center
01:51PM 38.6997 -80.3619 253° West 380 437 28,000  Level Indianapolis Center
01:52PM 38.6636 -80.5153 253° West 379 436 28,000  Level Indianapolis Center
01:53PM 38.6311 -80.6425 252° West 379 436 28,000  Level Indianapolis Center
01:54PM 38.5997 -80.7717 253° West 379 436 28,000  Level Indianapolis Center
01:55PM 38.5681 -80.8989 252° West 379 436 28,000  Level Indianapolis Center
01:56PM 38.5364 -81.0278 253° West 378 435 28,000  Level Indianapolis Center
01:57PM 38.5042 -81.1544 252° West 378 435 28,000  Level Indianapolis Center
01:58PM 38.4719 -81.2828 252° West 377 434 28,000  Level Indianapolis Center
02:00PM 38.4397 -81.4097 252° West 376 433 28,000  Level Indianapolis Center
02:01PM 38.4014 -81.5622 252° West 376 433 28,000  Level Indianapolis Center
02:02PM 38.3700 -81.6886 252° West 375 432 28,000  Level Indianapolis Center
02:03PM 38.3378 -81.8139 252° West 374 430 28,000  Level Indianapolis Center
02:04PM 38.3028 -81.9372 250° West 373 429 28,000  Level Indianapolis Center
02:05PM 38.2686 -82.0600 251° West 371 427 28,000  Level Indianapolis Center
02:06PM 38.2339 -82.1817 250° West 368 423 28,000  Level Indianapolis Center
02:07PM 38.1994 -82.3039 250° West 367 422 28,000  Level Indianapolis Center
02:08PM 38.1647 -82.4258 250° West 367 422 28,000  Level Indianapolis Center
02:09PM 38.1225 -82.5711 250° West 367 422 28,000  Level Indianapolis Center
02:10PM 38.0883 -82.6925 250° West 367 422 28,000  Level Indianapolis Center
02:11PM 38.0533 -82.8133 250° West 367 422 28,000  Level Indianapolis Center
02:12PM 38.0178 -82.9339 250° West 367 422 28,000  Level Indianapolis Center
02:13PM 37.9831 -83.0533 250° West 367 422 28,000  Level Indianapolis Center
02:14PM 37.9417 -83.1939 250° West 366 421 28,000  Level Indianapolis Center
02:15PM 37.9061 -83.3147 250° West 366 421 28,000  Level Indianapolis Center
02:16PM 37.8725 -83.4356 251° West 366 421 28,000  Level Indianapolis Center
02:17PM 37.8564 -83.5606 261° West 363 418 28,000  Level Indianapolis Center
02:18PM 37.8386 -83.6872 260° West 363 418 28,000 -180 Level Indianapolis Center
02:19PM 37.8186 -83.8333 260° West 363 418 27,700 -900 Descending Indianapolis Center
02:20PM 37.7997 -83.9611 259° West 364 419 26,200 -1,500 Descending Indianapolis Center
02:21PM 37.7811 -84.0900 260° West 368 423 24,700 -1,080 Descending Indianapolis Center
02:22PM 37.7625 -84.2189 260° West 368 423 24,000 -480 Descending Indianapolis Center
02:23PM 37.7431 -84.3494 259° West 375 432 23,800 -1,680 Descending Indianapolis Center
02:24PM 37.7231 -84.4950 260° West 368 423 20,600 -3,000 Descending Indianapolis Center
02:25PM 37.7425 -84.6186 281° West 365 420 17,700 -2,760 Descending Indianapolis Center
02:26PM 37.7872 -84.7297 297° West 359 413 15,000 -2,460 Descending Indianapolis Center
02:27PM 37.8292 -84.8372 296° West 347 399 12,700 -2,040 Descending Indianapolis Center
02:28PM 37.8686 -84.9347 297° West 317 365 10,900 -1,320 Descending Indianapolis Center
02:29PM 37.9017 -85.0300 294° West 299 344 10,000 -540 Descending Indianapolis Center
02:31PM 37.9567 -85.1317 304° West 297 342 9,900 -1,020 Descending Indianapolis Center
02:32PM 38.0053 -85.2156 306° West 295 339 8,000 -1,860 Descending Indianapolis Center
02:33PM 38.0547 -85.2944 309° West 287 330 6,200 -1,800 Descending Indianapolis Center
02:34PM 38.0994 -85.3719 306° West 276 318 4,400 -1,080 Descending Indianapolis Center
02:35PM 38.1411 -85.4469 305° West 270 311 4,000 -240 Descending Indianapolis Center
02:36PM 38.1817 -85.5172 306° West 258 297 4,000  Level Indianapolis Center
02:37PM 38.2378 -85.5664 325° Northwest 255 293 4,000  Level Indianapolis Center
02:38PM 38.2967 -85.6133 328° Northwest 250 288 4,000 -360 Level Indianapolis Center
02:39PM 38.3619 -85.6642 329° Northwest 243 280 3,300 -540 Descending Indianapolis Center
02:40PM 38.3692 -85.7303 278° West 219 252 3,000 -180 Descending Indianapolis Center
02:41PM 38.3472 -85.7794 240° Southwest 202 232 3,000 -60 Level Indianapolis Center
02:42PM 38.2986 -85.7697 171° South 188 216 2,900 -420 Descending Indianapolis Center
02:43PM 38.2539 -85.7544 165° South 172 198 2,200 -720 Descending Indianapolis Center